Flight Track Log - Related Links

Times and Time Zones

All times are in EDT time to prevent confusion due to time zone crossing. See the FSR411 flight status page for this flight to view local times or setup timezone preferences in your user account.

Time Position Orientation Groundspeed Altitude Reporting Facility
EDT Latitude Longitude Course Direction KTS MPH feet Rate Location/Type
Tue 07:09:13 AM 38.5333 -90.0833 93° East 225 259 2,800  Level Gateway (St. Louis) TRACON
Tue 07:10:02 AM 38.5306 -90.0186 93° East 270 311 3,300 1,817 Climbing Kansas City Center
Tue 07:11:02 AM 38.5975 -90.0058 North 256 295 6,100 3,074 Climbing Kansas City Center
Tue 07:12:03 AM 38.6728 -90.0278 347° North 269 310 9,500 3,322 Climbing Kansas City Center
Tue 07:13:03 AM 38.7517 -90.0542 345° North 288 331 12,800 2,200 Climbing Kansas City Center
Tue 07:14:03 AM 38.8536 -90.0867 346° North 371 427 13,900 595 Climbing Kansas City Center
Tue 07:15:04 AM 38.9619 -90.1200 347° North 397 457 14,000 49 Climbing Kansas City Center
Tue 07:16:05 AM 39.0694 -90.1531 347° North 401 461 14,000  Level Kansas City Center
Tue 07:17:05 AM 39.1742 -90.1861 346° North 394 453 14,000  Level Kansas City Center
Tue 07:18:06 AM 39.2761 -90.2192 346° North 384 442 14,000  Level Kansas City Center
Tue 07:19:06 AM 39.3992 -90.2572 347° North 381 438 14,000  Level Kansas City Center
Tue 07:20:07 AM 39.5003 -90.2914 345° North 378 435 14,000  Level Kansas City Center
Tue 07:21:08 AM 39.6014 -90.3211 347° North 376 433 14,000  Level Kansas City Center
Tue 07:22:08 AM 39.7017 -90.3542 346° North 374 430 14,000  Level Kansas City Center
Tue 07:23:09 AM 39.7917 -90.3839 346° North 375 432 14,000  Level Kansas City Center
Tue 07:24:10 AM 39.8936 -90.4161 346° North 375 432 14,000  Level Kansas City Center
Tue 07:25:10 AM 39.9953 -90.4492 346° North 375 432 14,000  Level Kansas City Center
Tue 07:26:11 AM 40.0972 -90.4831 346° North 376 433 14,000 -246 Level Kansas City Center
Tue 07:27:12 AM 40.1972 -90.5156 346° North 371 427 13,500 -1,140 Descending Kansas City Center
Tue 07:28:12 AM 40.2900 -90.5278 354° North 346 398 11,700 -1,983 Descending Kansas City Center
Tue 07:29:13 AM 40.3925 -90.5100 North 315 362 9,500 -1,820 Descending Kansas City Center
Tue 07:30:14 AM 40.4767 -90.5178 356° North 303 349 8,000 -1,525 Descending Kansas City Center
Tue 07:31:15 AM 40.5608 -90.5311 353° North 305 351 6,400 -1,512 Descending Kansas City Center
Tue 07:32:21 AM 40.6431 -90.5444 353° North 300 345 4,800 -1,512 Descending Chicago Center
Tue 07:33:22 AM 40.7206 -90.5547 354° North 290 334 3,200 -878 Descending Chicago Center
Tue 07:34:24 AM 40.7897 -90.5389 10° North 272 313 3,000 -146 Descending Chicago Center
Tue 07:35:25 AM 40.8536 -90.4906 30° Northeast 253 291 2,900 -682 Descending Chicago Center
Tue 07:37:20 AM 40.9206 -90.4444 27° Northeast 163 188 1,000 -991 Descending Kansas City Center

Login

Don't have an account? Register now (free) for customized features, flight alerts, and more!